Terminal Aerodrome Forecast
Issued by NWS

Home | Current Version | Previous Version | Text Only | Print | Product List | Glossary On
Versions: 1 2 3 4 5 6 7 8 9 10 11 12 13 14 15 16 17 18 19 20 21 22 23 24 25 26 27 28
000
FTUS41 KBTV 171730
TAFPBG
TAF
KPBG 171730Z 1718/1818 11004KT P6SM BKN200
     FM172200 13009KT P6SM OVC100
     FM180000 15012KT 6SM -SN OVC050
     FM180100 16012KT 1SM -SN BR OVC020
     FM181400 12007KT 3SM -SN BR OVC025=

USA.gov is the U.S. government's official web portal to all federal, state and local government web resources and services.